Time;durP1;ratioP1;P1;durP2;ratioP2;P2;SDS_P1;SDS_P2;PMS_P1;PMS_P2;Temp;Humidity;BMP_temperature;BMP_pressure;BME280_temperature;BME280_humidity;BME280_pressure;Samples;Min_cycle;Max_cycle;Signal;HPM_P1;HPM_P2
2021/10/12 00:02:12;;;;;;;4.07;3.67;;;;;;;30.67;22.90;93971.94;5053955;28;20045;-64
2021/10/12 00:04:39;;;;;;;4.18;3.78;;;;;;;30.78;22.55;93981.72;5054233;28;20041;-58
2021/10/12 00:07:06;;;;;;;5.35;3.75;;;;;;;30.61;22.80;93968.25;5054406;28;20041;-62
2021/10/12 00:09:34;;;;;;;4.82;3.72;;;;;;;30.86;22.50;93980.34;5054101;28;20044;-58
2021/10/12 00:12:01;;;;;;;3.72;3.42;;;;;;;31.02;22.61;93983.03;5054095;28;20048;-62
2021/10/12 00:14:28;;;;;;;3.70;3.40;;;;;;;30.87;22.31;93976.47;5054474;28;20047;-61
2021/10/12 00:16:56;;;;;;;3.67;3.38;;;;;;;30.85;22.50;93973.44;5054382;28;20048;-61
2021/10/12 00:19:23;;;;;;;3.92;3.33;;;;;;;30.69;22.62;93971.53;5058444;28;20056;-58
2021/10/12 00:21:50;;;;;;;3.00;2.70;;;;;;;30.60;22.58;93977.53;5067001;28;20048;-64
2021/10/12 00:24:17;;;;;;;3.28;2.97;;;;;;;31.07;21.96;93971.69;5073944;28;20053;-60
2021/10/12 00:26:44;;;;;;;5.03;3.72;;;;;;;30.84;22.38;93977.31;5073922;28;20048;-52
2021/10/12 00:29:12;;;;;;;3.30;2.90;;;;;;;30.64;22.65;93988.22;5073917;28;20052;-60
2021/10/12 00:31:39;;;;;;;4.07;3.08;;;;;;;30.36;23.19;93992.34;5061981;28;20048;-58
2021/10/12 00:34:06;;;;;;;3.30;3.00;;;;;;;30.64;22.61;93993.63;5053718;28;20063;-57
2021/10/12 00:36:33;;;;;;;3.33;3.03;;;;;;;30.64;22.35;93980.13;5053960;28;20048;-60
2021/10/12 00:39:02;;;;;;;2.95;2.63;;;;;;;30.97;21.99;93978.16;5053589;28;20494;-60
2021/10/12 00:41:29;;;;;;;2.92;2.63;;;;;;;30.91;22.24;93987.94;5053229;28;20451;-58
2021/10/12 00:43:57;;;;;;;4.93;2.80;;;;;;;30.65;22.75;93987.78;5036116;28;20052;-57
2021/10/12 00:46:24;;;;;;;4.22;2.47;;;;;;;30.80;22.40;93982.81;5053667;28;20045;-59
2021/10/12 00:48:51;;;;;;;4.38;2.60;;;;;;;30.03;23.17;93983.47;5058220;28;20051;-59
2021/10/12 00:51:18;;;;;;;3.70;2.58;;;;;;;30.41;22.91;93983.75;5053233;28;20359;-55
2021/10/12 00:53:45;;;;;;;3.00;2.70;;;;;;;30.96;22.17;93984.69;5053522;28;20059;-59
2021/10/12 00:56:12;;;;;;;3.30;2.92;;;;;;;29.60;24.02;93975.53;5055087;28;20077;-59
2021/10/12 00:58:40;;;;;;;3.38;2.80;;;;;;;29.87;23.71;93975.34;5053198;28;20049;-61
2021/10/12 01:01:07;;;;;;;3.55;2.70;;;;;;;30.47;22.81;93987.47;5053294;28;20442;-63
2021/10/12 01:03:34;;;;;;;4.72;2.78;;;;;;;30.14;23.00;93991.31;5053521;28;20052;-62
2021/10/12 01:06:02;;;;;;;3.35;2.25;;;;;;;30.52;22.67;93978.88;5053753;28;20418;-64
2021/10/12 01:08:29;;;;;;;3.00;2.20;;;;;;;30.18;22.89;93992.00;5035800;28;20048;-54
2021/10/12 01:10:56;;;;;;;2.78;2.33;;;;;;;30.55;22.50;93990.75;5053195;28;20068;-58
2021/10/12 01:13:24;;;;;;;2.28;2.00;;;;;;;30.28;22.74;93997.16;5053521;28;20049;-58
2021/10/12 01:15:52;;;;;;;2.05;1.70;;;;;;;30.38;22.83;93981.88;5053633;28;20044;-65
2021/10/12 01:18:20;;;;;;;1.70;1.60;;;;;;;30.82;22.23;93987.78;5053848;28;20818;-59
2021/10/12 01:20:50;;;;;;;3.47;2.00;;;;;;;30.49;22.44;93968.94;5064207;28;20048;-59
2021/10/12 01:23:17;;;;;;;3.13;2.00;;;;;;;30.83;22.17;93983.91;5053336;28;20041;-57
2021/10/12 01:25:44;;;;;;;2.53;2.30;;;;;;;30.72;22.11;93980.72;5055993;28;20052;-58
2021/10/12 01:28:12;;;;;;;1.98;1.77;;;;;;;30.51;22.43;93988.13;5056707;28;20055;-59
2021/10/12 01:30:39;;;;;;;3.42;2.45;;;;;;;30.49;22.23;93985.09;5056880;28;20052;-56
2021/10/12 01:33:07;;;;;;;2.50;2.30;;;;;;;30.46;22.16;93988.66;5057167;28;20526;-59
2021/10/12 01:35:34;;;;;;;2.65;2.00;;;;;;;30.58;22.29;93987.94;5057077;28;20045;-54
2021/10/12 01:38:02;;;;;;;2.22;1.80;;;;;;;30.45;22.42;93984.44;5056702;28;20045;-59
2021/10/12 01:40:29;;;;;;;2.45;2.10;;;;;;;30.17;22.49;93995.88;5056734;28;20041;-59
2021/10/12 01:42:57;;;;;;;3.45;1.90;;;;;;;30.67;21.87;93988.13;5057059;28;20037;-56
2021/10/12 01:45:24;;;;;;;2.33;1.90;;;;;;;30.66;21.91;93996.66;5056888;28;20044;-61
2021/10/12 01:47:53;;;;;;;4.50;1.80;;;;;;;30.79;21.67;93996.72;5056143;28;20052;-66
2021/10/12 01:50:21;;;;;;;2.17;1.90;;;;;;;30.44;21.79;93985.59;5069552;28;20057;-63
2021/10/12 01:52:48;;;;;;;1.73;1.52;;;;;;;30.47;21.73;93982.06;5057031;28;20340;-57
2021/10/12 01:55:17;;;;;;;2.20;1.50;;;;;;;30.28;21.90;93985.59;5056310;28;20059;-62
2021/10/12 01:57:44;;;;;;;1.80;1.60;;;;;;;30.36;21.50;93968.06;5056543;28;20053;-55
2021/10/12 02:00:12;;;;;;;2.05;1.83;;;;;;;30.14;21.72;93957.03;5056305;28;20458;-58
2021/10/12 02:02:39;;;;;;;1.70;1.60;;;;;;;30.35;21.55;93958.47;5055389;28;20049;-63
2021/10/12 02:05:06;;;;;;;1.55;1.33;;;;;;;30.29;21.62;93963.63;5056411;28;20060;-61
2021/10/12 02:07:34;;;;;;;1.77;1.55;;;;;;;30.12;21.98;93961.34;5056146;28;20055;-64
2021/10/12 02:10:01;;;;;;;2.33;1.90;;;;;;;30.12;21.69;93945.16;5056398;28;20439;-65
2021/10/12 02:12:29;;;;;;;2.58;1.60;;;;;;;29.94;21.80;93957.09;5056466;28;20045;-62
2021/10/12 02:14:57;;;;;;;1.60;1.50;;;;;;;30.46;21.22;93948.19;5056474;28;20040;-61
2021/10/12 02:17:24;;;;;;;2.35;1.80;;;;;;;29.92;21.69;93942.50;5056299;28;20045;-59
2021/10/12 02:19:51;;;;;;;1.38;1.27;;;;;;;30.17;21.67;93939.25;5070079;28;20060;-63
2021/10/12 02:22:18;;;;;;;1.65;1.40;;;;;;;29.84;21.86;93925.75;5076244;28;20056;-63
2021/10/12 02:24:45;;;;;;;2.60;1.45;;;;;;;30.06;21.49;93932.19;5061981;28;20048;-64
2021/10/12 02:27:12;;;;;;;1.92;1.10;;;;;;;29.93;21.49;93936.72;5055962;28;20048;-54
2021/10/12 02:29:40;;;;;;;2.22;1.30;;;;;;;29.87;21.74;93930.28;5055889;28;20045;-60
2021/10/12 02:32:07;;;;;;;1.42;1.30;;;;;;;29.96;21.54;93933.19;5056144;28;20359;-56
2021/10/12 02:34:34;;;;;;;1.50;1.10;;;;;;;30.01;21.55;93938.06;5055853;28;20048;-59
2021/10/12 02:37:01;;;;;;;1.65;1.30;;;;;;;30.02;21.43;93930.75;5056116;28;20045;-54
2021/10/12 02:39:28;;;;;;;1.65;1.23;;;;;;;29.94;21.39;93940.94;5075728;28;20047;-60
2021/10/12 02:41:55;;;;;;;2.00;1.23;;;;;;;30.33;20.77;93942.72;5075869;28;20048;-57
2021/10/12 02:44:22;;;;;;;1.67;0.90;;;;;;;29.60;21.79;93937.81;5075502;28;20053;-58
2021/10/12 02:46:49;;;;;;;1.42;1.08;;;;;;;30.06;21.16;93942.22;5072161;28;20067;-54
2021/10/12 02:49:16;;;;;;;1.40;1.27;;;;;;;29.83;21.43;93932.31;5064290;28;20494;-61
2021/10/12 02:51:43;;;;;;;2.00;0.95;;;;;;;29.84;21.37;93933.06;5075646;28;20048;-56
2021/10/12 02:54:11;;;;;;;1.48;1.10;;;;;;;29.91;21.28;93936.34;5067057;28;20486;-55
2021/10/12 02:56:38;;;;;;;2.08;1.08;;;;;;;29.99;21.16;93937.72;5055660;28;20052;-62
2021/10/12 02:59:05;;;;;;;2.03;1.13;;;;;;;30.01;21.10;93937.31;5054398;28;20359;-58
2021/10/12 03:01:32;;;;;;;1.25;1.05;;;;;;;30.05;21.21;93944.16;5055440;28;20367;-53
2021/10/12 03:03:59;;;;;;;1.20;0.90;;;;;;;30.11;21.28;93946.34;5055272;28;20049;-59
2021/10/12 03:06:26;;;;;;;2.17;1.00;;;;;;;29.67;21.64;93948.47;5055330;28;20057;-58
2021/10/12 03:08:53;;;;;;;2.10;1.20;;;;;;;29.68;21.32;93942.66;5054491;28;20455;-60
2021/10/12 03:11:20;;;;;;;1.40;1.00;;;;;;;29.82;21.53;93938.88;5055405;28;20052;-60
2021/10/12 03:13:48;;;;;;;3.45;1.20;;;;;;;29.85;21.28;93938.03;5055059;28;20037;-59
2021/10/12 03:16:15;;;;;;;2.58;0.88;;;;;;;29.72;21.46;93945.28;5054322;28;20055;-59
2021/10/12 03:18:42;;;;;;;1.20;1.10;;;;;;;29.85;21.28;93943.44;5058045;28;20522;-61
2021/10/12 03:21:09;;;;;;;3.00;1.10;;;;;;;29.49;21.65;93937.31;5060177;28;20060;-57
2021/10/12 03:23:36;;;;;;;1.17;0.93;;;;;;;29.68;21.45;93948.06;5055184;28;20041;-59
2021/10/12 03:26:03;;;;;;;1.33;0.90;;;;;;;29.40;21.50;93941.28;5054983;28;20052;-59
2021/10/12 03:28:30;;;;;;;1.58;1.10;;;;;;;29.77;21.28;93947.47;5054672;28;20045;-62
2021/10/12 03:30:57;;;;;;;3.13;1.20;;;;;;;29.37;21.79;93935.97;5053945;28;20460;-56
2021/10/12 03:33:24;;;;;;;1.45;0.98;;;;;;;29.71;21.41;93943.75;5054967;28;20048;-59
2021/10/12 03:35:59;;;;;;;1.40;1.10;;;;;;;29.72;21.39;93940.66;5054966;28;20104;-53
2021/10/12 03:38:28;;;;;;;1.35;1.15;;;;;;;29.82;21.29;93936.19;5054592;28;20340;-54
2021/10/12 03:40:55;;;;;;;1.45;0.95;;;;;;;29.80;21.12;93935.84;5054150;28;20055;-63
2021/10/12 03:43:23;;;;;;;1.33;0.90;;;;;;;29.61;21.51;93928.56;5054965;28;20044;-53
2021/10/12 03:45:51;;;;;;;1.50;0.90;;;;;;;29.70;21.46;93936.84;5054413;28;20478;-57
2021/10/12 03:48:18;;;;;;;1.42;0.93;;;;;;;29.43;21.58;93937.78;5054972;28;20367;-55
2021/10/12 03:50:45;;;;;;;1.27;0.90;;;;;;;29.62;21.24;93940.84;5074344;28;20048;-61
2021/10/12 03:53:12;;;;;;;1.20;0.85;;;;;;;29.66;21.16;93946.94;5056173;28;20043;-59
2021/10/12 03:55:39;;;;;;;0.93;0.75;;;;;;;29.67;21.11;93937.69;5053849;28;20056;-56
2021/10/12 03:58:06;;;;;;;0.90;0.68;;;;;;;29.85;20.77;93932.66;5054197;28;20052;-64
2021/10/12 04:00:33;;;;;;;1.17;0.80;;;;;;;29.56;21.44;93945.22;5054687;28;20044;-57
2021/10/12 04:03:00;;;;;;;1.40;0.70;;;;;;;29.56;21.21;93937.16;5052957;28;20333;-60
2021/10/12 04:05:27;;;;;;;1.25;0.70;;;;;;;29.65;21.29;93945.41;5054247;28;20045;-58
2021/10/12 04:07:54;;;;;;;1.30;0.70;;;;;;;29.35;21.35;93939.06;5054034;28;20044;-61
2021/10/12 04:10:22;;;;;;;0.80;0.40;;;;;;;29.36;21.17;93945.22;5054395;28;20349;-57
2021/10/12 04:12:50;;;;;;;0.88;0.60;;;;;;;29.64;20.92;93939.25;5054037;28;20049;-59
2021/10/12 04:15:17;;;;;;;0.98;0.60;;;;;;;29.36;21.40;93937.16;5054298;28;20044;-59
2021/10/12 04:17:44;;;;;;;0.75;0.55;;;;;;;29.41;21.15;93926.66;5053713;28;20048;-64
2021/10/12 04:20:11;;;;;;;0.70;0.40;;;;;;;29.66;21.01;93922.69;5070648;28;20048;-66
2021/10/12 04:22:39;;;;;;;1.08;0.70;;;;;;;29.45;21.18;93926.63;5061072;28;20041;-61
2021/10/12 04:25:06;;;;;;;0.90;0.55;;;;;;;29.45;21.18;93932.75;5053642;28;20359;-64
2021/10/12 04:27:34;;;;;;;0.90;0.60;;;;;;;29.70;20.93;93920.69;5055206;28;20439;-65
2021/10/12 04:30:01;;;;;;;0.93;0.55;;;;;;;29.71;21.01;93930.28;5073935;28;20051;-59
2021/10/12 04:32:28;;;;;;;0.90;0.63;;;;;;;31.06;19.86;93935.09;5058348;28;20045;-56
2021/10/12 04:34:55;;;;;;;1.75;1.02;;;;;;;30.58;20.71;93925.16;5073938;28;20041;-57
2021/10/12 04:37:22;;;;;;;1.40;1.25;;;;;;;30.20;21.25;93931.13;5072905;28;20055;-57
2021/10/12 04:39:50;;;;;;;1.23;1.10;;;;;;;30.17;21.53;93925.78;5053996;28;20048;-55
2021/10/12 04:42:17;;;;;;;1.70;1.15;;;;;;;31.04;20.55;93928.63;5053461;28;20333;-54
2021/10/12 04:44:47;;;;;;;3.13;1.23;;;;;;;31.13;20.46;93924.09;5057034;28;20048;-57
2021/10/12 04:47:15;;;;;;;2.75;1.52;;;;;;;30.78;20.90;93930.47;5073734;28;20032;-53
2021/10/12 04:49:42;;;;;;;2.45;1.38;;;;;;;30.31;21.68;93926.22;5065986;28;20052;-52
2021/10/12 04:52:09;;;;;;;3.25;1.30;;;;;;;30.24;21.91;93920.25;5060699;28;20044;-54
2021/10/12 04:54:36;;;;;;;1.92;1.20;;;;;;;31.13;21.10;93920.66;5053953;28;20523;-55
2021/10/12 04:57:03;;;;;;;2.95;1.40;;;;;;;31.24;20.86;93924.59;5053895;28;20048;-54
2021/10/12 04:59:30;;;;;;;2.20;1.30;;;;;;;31.21;20.85;93922.75;5054084;28;20056;-53
2021/10/12 05:01:58;;;;;;;3.67;1.52;;;;;;;31.31;20.48;93923.63;5057401;28;20044;-52
2021/10/12 05:04:25;;;;;;;5.90;2.45;;;;;;;33.87;19.27;93914.44;5057976;28;20055;-55
2021/10/12 05:06:53;;;;;;;4.72;2.00;;;;;;;33.31;19.61;93913.41;5057231;28;20044;-53
2021/10/12 05:09:20;;;;;;;2.72;1.63;;;;;;;31.58;20.34;93918.59;5057459;28;20049;-53
2021/10/12 05:11:47;;;;;;;3.63;1.33;;;;;;;30.31;21.21;93925.44;5057603;28;20045;-54
2021/10/12 05:14:16;;;;;;;3.05;1.50;;;;;;;30.12;21.20;93918.22;5057459;28;20383;-55
2021/10/12 05:16:43;;;;;;;1.70;1.10;;;;;;;30.13;21.14;93933.19;5057649;28;20044;-52
2021/10/12 05:19:10;;;;;;;1.73;0.98;;;;;;;30.09;20.94;93930.59;5065058;28;20057;-54
2021/10/12 05:21:37;;;;;;;1.25;0.90;;;;;;;30.02;20.89;93923.41;5075186;28;20051;-53
2021/10/12 05:24:04;;;;;;;1.83;0.85;;;;;;;30.02;20.71;93920.72;5057644;28;20056;-54
2021/10/12 05:26:31;;;;;;;1.73;0.95;;;;;;;30.21;20.65;93926.47;5057349;28;20045;-54
2021/10/12 05:28:58;;;;;;;1.67;1.08;;;;;;;30.25;20.38;93927.16;5050579;28;20057;-55
2021/10/12 05:31:26;;;;;;;1.50;0.88;;;;;;;30.31;20.57;93926.22;5059346;28;20048;-53
2021/10/12 05:33:53;;;;;;;0.93;0.80;;;;;;;30.31;20.40;93931.59;5077293;28;20044;-53
2021/10/12 05:36:20;;;;;;;1.52;0.80;;;;;;;30.27;20.38;93927.47;5058864;28;20048;-55
2021/10/12 05:38:47;;;;;;;2.13;1.10;;;;;;;30.21;20.38;93937.25;5076679;28;20048;-54
2021/10/12 05:41:15;;;;;;;1.40;0.88;;;;;;;30.21;20.35;93942.66;5077035;28;20079;-52
2021/10/12 05:43:42;;;;;;;3.25;1.42;;;;;;;30.02;20.55;93946.91;5076812;28;20055;-53
2021/10/12 05:46:09;;;;;;;2.30;1.17;;;;;;;29.96;20.62;93933.19;5059411;28;20045;-53
2021/10/12 05:48:36;;;;;;;1.42;1.10;;;;;;;29.99;20.66;93942.34;5059891;28;20044;-56
2021/10/12 05:51:03;;;;;;;2.05;0.90;;;;;;;30.07;20.51;93941.78;5076819;28;20045;-55
2021/10/12 05:53:43;;;;;;;1.02;0.70;;;;;;;29.87;20.58;93935.69;5059492;28;20506;-49
2021/10/12 05:56:18;;;;;;;1.17;0.88;;;;;;;30.08;20.44;93935.22;5056637;28;20044;-53
2021/10/12 05:58:51;;;;;;;1.80;1.00;;;;;;;29.98;20.65;93933.53;5056363;28;20451;-53
2021/10/12 06:01:19;;;;;;;1.20;0.85;;;;;;;29.97;20.61;93942.03;5056575;28;20049;-51
2021/10/12 06:03:47;;;;;;;1.50;0.90;;;;;;;29.23;21.58;93942.41;5055587;28;20395;-54
2021/10/12 06:06:15;;;;;;;1.30;1.10;;;;;;;29.35;21.18;93939.06;5056299;28;20048;-53
2021/10/12 06:08:43;;;;;;;1.20;0.93;;;;;;;29.51;21.05;93940.34;5056216;28;20071;-58
2021/10/12 06:11:10;;;;;;;1.27;0.90;;;;;;;29.76;20.71;93940.56;5056480;28;20481;-53
2021/10/12 06:13:39;;;;;;;0.95;0.80;;;;;;;29.91;20.64;93941.75;5073397;28;20059;-52
2021/10/12 06:16:07;;;;;;;1.40;0.80;;;;;;;29.77;20.57;93939.38;5076376;28;20048;-53
2021/10/12 06:18:34;;;;;;;1.65;0.93;;;;;;;29.76;20.37;93935.94;5074592;28;20067;-53
2021/10/12 06:21:01;;;;;;;0.90;0.77;;;;;;;30.02;20.52;93939.59;5076424;28;20052;-53
2021/10/12 06:23:28;;;;;;;1.30;0.80;;;;;;;30.12;20.33;93945.16;5060399;28;20427;-56
2021/10/12 06:25:56;;;;;;;1.75;1.00;;;;;;;30.16;20.21;93943.13;5056303;28;20045;-52
2021/10/12 06:28:23;;;;;;;2.10;1.02;;;;;;;29.91;20.60;93944.44;5055646;28;20052;-54
2021/10/12 06:30:50;;;;;;;1.13;0.82;;;;;;;29.89;20.37;93941.41;5056288;28;20052;-54
2021/10/12 06:33:18;;;;;;;2.58;1.10;;;;;;;29.67;20.76;93945.78;5056095;28;20049;-55
2021/10/12 06:35:45;;;;;;;1.85;1.08;;;;;;;30.15;20.41;93955.09;5056157;28;20037;-54
2021/10/12 06:38:12;;;;;;;2.88;1.10;;;;;;;29.88;20.51;93953.38;5055425;28;20056;-53
2021/10/12 06:40:40;;;;;;;1.50;1.00;;;;;;;29.70;20.74;93955.72;5055905;28;20049;-54
2021/10/12 06:43:08;;;;;;;1.73;1.13;;;;;;;29.98;20.64;93957.78;5055707;28;20048;-53
2021/10/12 06:45:37;;;;;;;1.55;0.90;;;;;;;29.76;20.59;93957.47;5055704;28;20481;-54
2021/10/12 06:48:05;;;;;;;1.13;0.88;;;;;;;30.03;20.26;93959.22;5054583;28;20448;-54
2021/10/12 06:50:32;;;;;;;1.15;0.73;;;;;;;29.98;20.54;93963.16;5075247;28;20451;-53
2021/10/12 06:52:59;;;;;;;1.08;0.70;;;;;;;30.22;20.28;93960.34;5064740;28;20083;-55
2021/10/12 06:55:26;;;;;;;1.45;0.82;;;;;;;30.03;20.59;93961.94;5055815;28;20056;-53
2021/10/12 06:57:54;;;;;;;1.40;0.80;;;;;;;29.86;20.51;93966.50;5055346;28;20363;-52
2021/10/12 07:00:22;;;;;;;1.60;0.80;;;;;;;29.74;20.65;93964.47;5054473;28;20075;-55
2021/10/12 07:02:49;;;;;;;1.70;0.80;;;;;;;29.97;20.59;93972.41;5055347;28;20048;-54
2021/10/12 07:05:17;;;;;;;1.02;0.77;;;;;;;29.95;20.68;93968.63;5055399;28;20048;-54
2021/10/12 07:07:44;;;;;;;1.40;0.90;;;;;;;29.85;20.81;93972.31;5055398;28;20044;-52
2021/10/12 07:10:12;;;;;;;1.38;0.85;;;;;;;30.15;20.28;93972.03;5055113;28;20058;-54
2021/10/12 07:12:40;;;;;;;3.78;0.88;;;;;;;30.03;20.44;93970.00;5055601;28;20048;-52
2021/10/12 07:15:09;;;;;;;1.98;0.90;;;;;;;31.10;19.39;93968.16;5055722;28;20048;-55
2021/10/12 07:17:38;;;;;;;2.35;1.02;;;;;;;30.67;20.02;93974.66;5054873;28;20056;-53
2021/10/12 07:20:06;;;;;;;3.05;1.33;;;;;;;31.02;19.49;93972.22;5070559;28;20458;-55
2021/10/12 07:22:33;;;;;;;2.22;1.73;;;;;;;31.25;19.72;93976.66;5062834;28;20049;-56
2021/10/12 07:25:02;;;;;;;2.60;2.13;;;;;;;31.19;19.27;93971.00;5054622;28;20044;-50
2021/10/12 07:27:30;;;;;;;3.15;2.58;;;;;;;31.25;19.50;93976.66;5055028;28;20120;-54
2021/10/12 07:29:57;;;;;;;4.72;2.42;;;;;;;30.99;19.88;93973.09;5071031;28;20340;-50
2021/10/12 07:32:24;;;;;;;2.55;2.05;;;;;;;31.68;19.30;93978.91;5074648;28;20059;-53
2021/10/12 07:34:51;;;;;;;4.95;3.33;;;;;;;31.65;20.04;93974.34;5074909;28;20048;-54
2021/10/12 07:37:18;;;;;;;6.28;3.13;;;;;;;31.38;20.14;93974.72;5074738;28;20044;-55
2021/10/12 07:39:45;;;;;;;2.85;2.10;;;;;;;30.21;20.78;93980.38;5064112;28;20049;-54
2021/10/12 07:42:13;;;;;;;2.40;1.92;;;;;;;29.80;21.17;93968.19;5054347;28;20052;-53
2021/10/12 07:44:40;;;;;;;2.25;1.88;;;;;;;29.75;21.31;93971.38;5054778;28;20045;-53
2021/10/12 07:47:08;;;;;;;2.33;1.60;;;;;;;29.93;20.91;93971.75;5054508;28;20436;-55
2021/10/12 07:49:36;;;;;;;2.40;1.67;;;;;;;29.84;21.10;93963.47;5065147;28;20059;-53
2021/10/12 07:52:07;;;;;;;1.98;1.50;;;;;;;29.84;20.98;93966.16;5072866;28;20052;-53
2021/10/12 07:54:45;;;;;;;2.22;1.38;;;;;;;29.66;21.00;93969.22;5054620;28;20356;-56
2021/10/12 07:57:14;;;;;;;1.60;1.23;;;;;;;29.98;20.58;93973.19;5054316;28;20048;-54
2021/10/12 07:59:41;;;;;;;2.35;1.33;;;;;;;30.51;20.19;93971.94;5054177;28;20044;-56
2021/10/12 08:02:12;;;;;;;1.70;1.33;;;;;;;29.85;20.69;93970.38;5054068;28;20041;-55
2021/10/12 08:04:42;;;;;;;2.63;1.20;;;;;;;29.80;20.90;93965.47;5054570;28;20048;-54
2021/10/12 08:07:10;;;;;;;1.55;1.08;;;;;;;30.12;20.45;93977.50;5054445;28;20391;-55
2021/10/12 08:09:37;;;;;;;3.97;1.10;;;;;;;29.63;21.17;93964.69;5054134;28;20045;-53
2021/10/12 08:12:05;;;;;;;1.73;0.98;;;;;;;29.83;20.94;93967.34;5054052;28;20045;-55
2021/10/12 08:14:37;;;;;;;1.50;1.30;;;;;;;30.04;20.46;93961.50;5036736;28;20052;-55
2021/10/12 08:17:04;;;;;;;;;;;;;;;30.51;20.39;93969.25;5054640;28;20329;-53
2021/10/12 08:19:33;;;;;;;1.88;1.35;;;;;;;30.20;20.81;93968.09;5064663;28;19924;-54
2021/10/12 08:22:01;;;;;;;1.65;1.20;;;;;;;29.96;21.07;93965.53;5074003;28;20355;-54
2021/10/12 08:24:28;;;;;;;1.70;1.35;;;;;;;29.56;21.44;93969.47;5074292;28;20040;-55
2021/10/12 08:26:55;;;;;;;1.30;1.10;;;;;;;29.76;21.32;93968.25;5073935;28;20056;-55
2021/10/12 08:29:22;;;;;;;1.50;0.98;;;;;;;29.63;21.52;93953.16;5074028;28;20048;-54
2021/10/12 08:31:51;;;;;;;1.58;1.05;;;;;;;30.00;21.16;93955.41;5061314;28;20055;-53
2021/10/12 08:34:18;;;;;;;1.85;1.00;;;;;;;30.11;20.81;93949.03;5052221;28;20056;-57
2021/10/12 08:36:45;;;;;;;1.90;1.48;;;;;;;29.43;21.68;93948.53;5053912;28;20037;-54
2021/10/12 08:39:12;;;;;;;2.33;1.50;;;;;;;29.83;21.12;93953.88;5053574;28;20072;-55
2021/10/12 08:41:47;;;;;;;2.30;1.60;;;;;;;29.72;21.51;93956.81;5053865;28;20056;-53
2021/10/12 08:44:14;;;;;;;2.63;1.70;;;;;;;29.95;21.06;93969.38;5036660;28;20052;-53
2021/10/12 08:46:42;;;;;;;1.73;1.27;;;;;;;29.96;21.14;93962.81;5053999;28;20049;-54
2021/10/12 08:49:12;;;;;;;2.20;1.50;;;;;;;29.90;21.09;93967.16;5060239;28;20382;-57
2021/10/12 08:51:45;;;;;;;1.63;1.30;;;;;;;30.17;20.58;93958.13;5073779;28;20044;-57
2021/10/12 08:54:12;;;;;;;1.70;1.40;;;;;;;30.16;20.35;93962.00;5073393;28;20045;-53
2021/10/12 08:56:40;;;;;;;3.03;1.17;;;;;;;29.99;21.10;93969.31;5073972;28;20051;-54
2021/10/12 08:59:07;;;;;;;1.30;1.00;;;;;;;30.20;20.66;93962.69;5073348;28;20048;-54
2021/10/12 09:02:01;;;;;;;2.20;1.25;;;;;;;30.14;21.00;93948.94;5073761;28;20048;-54
2021/10/12 09:04:39;;;;;;;2.15;1.27;;;;;;;29.82;21.41;93959.69;5072840;28;20041;-55
2021/10/12 09:07:19;;;;;;;1.27;1.00;;;;;;;30.03;20.84;93957.28;5073543;28;20082;-55
2021/10/12 09:09:46;;;;;;;1.83;1.20;;;;;;;29.63;21.46;93953.91;5073346;28;20048;-53
2021/10/12 09:12:15;;;;;;;1.20;1.00;;;;;;;29.94;21.22;93946.31;5073219;28;20056;-55
2021/10/12 09:14:59;;;;;;;1.38;1.05;;;;;;;29.76;21.50;93946.72;5073618;28;20044;-56
2021/10/12 09:17:32;;;;;;;1.50;1.15;;;;;;;29.74;21.46;93942.91;5073418;28;20048;-55
2021/10/12 09:20:01;;;;;;;2.00;0.90;;;;;;;29.94;20.99;93937.47;5059529;28;20395;-55
2021/10/12 09:22:28;;;;;;;1.48;1.08;;;;;;;29.76;21.37;93940.56;5053332;28;20045;-56
2021/10/12 09:25:09;;;;;;;1.05;0.90;;;;;;;29.91;21.19;93941.75;5036637;28;20333;-54
2021/10/12 09:27:52;;;;;;;1.48;1.10;;;;;;;29.82;21.41;93938.13;5052211;28;20056;-57
2021/10/12 09:30:28;;;;;;;1.55;1.20;;;;;;;29.94;21.22;93927.47;5053065;28;20045;-53
2021/10/12 09:33:04;;;;;;;2.00;1.00;;;;;;;29.87;21.35;93934.94;5052765;28;20044;-56
2021/10/12 09:35:32;;;;;;;1.30;1.00;;;;;;;29.25;21.84;93923.91;5053352;28;20375;-55
2021/10/12 09:38:04;;;;;;;1.38;1.10;;;;;;;29.17;22.19;93927.94;5052550;28;20045;-53
2021/10/12 09:40:32;;;;;;;1.05;0.90;;;;;;;28.99;22.16;93922.13;5053177;28;20057;-55
2021/10/12 09:42:59;;;;;;;1.52;0.90;;;;;;;29.29;21.92;93927.28;5052688;28;20064;-54
2021/10/12 09:45:40;;;;;;;2.15;1.10;;;;;;;29.57;21.68;93917.13;5053850;28;20048;-53
2021/10/12 09:48:46;;;;;;;1.33;0.93;;;;;;;29.94;21.15;93924.75;5056698;28;20363;-58
2021/10/12 09:51:15;;;;;;;1.45;1.08;;;;;;;29.45;21.64;93916.59;4975700;28;20611;-54
2021/10/12 09:53:44;;;;;;;1.83;1.10;;;;;;;30.04;21.02;93917.63;4975540;28;20054;-55
2021/10/12 09:56:13;;;;;;;2.10;1.33;;;;;;;29.34;21.81;93921.41;5017470;28;20448;-54
2021/10/12 09:58:43;;;;;;;1.65;1.15;;;;;;;29.83;21.10;93921.53;5056438;28;20045;-56
2021/10/12 10:01:10;;;;;;;1.55;1.10;;;;;;;29.37;21.80;93917.88;5039729;28;20358;-53
2021/10/12 10:03:38;;;;;;;2.08;1.50;;;;;;;29.21;21.86;93907.09;5055890;28;20060;-54
2021/10/12 10:06:10;;;;;;;5.20;2.05;;;;;;;29.87;21.22;93913.38;5056380;28;20041;-54
2021/10/12 10:08:46;;;;;;;2.35;1.80;;;;;;;29.75;21.31;93912.09;5056318;28;20379;-56
2021/10/12 10:11:14;;;;;;;3.03;2.03;;;;;;;29.98;21.00;93909.28;5056172;28;20053;-57
2021/10/12 10:13:41;;;;;;;2.00;1.73;;;;;;;29.80;21.48;93927.78;5056253;28;20040;-55
2021/10/12 10:16:10;;;;;;;2.45;1.98;;;;;;;29.99;21.06;93910.78;5055886;28;20363;-57
2021/10/12 10:18:39;;;;;;;2.47;1.90;;;;;;;29.93;21.24;93915.16;5042093;28;20060;-54
2021/10/12 10:21:06;;;;;;;1.83;1.65;;;;;;;30.02;21.13;93904.56;5075374;28;20040;-53
2021/10/12 10:24:09;;;;;;;3.42;1.52;;;;;;;29.83;21.35;93902.69;5058633;28;20048;-55
2021/10/12 10:26:38;;;;;;;1.73;1.45;;;;;;;30.10;20.85;93907.09;5076157;28;20049;-53
2021/10/12 10:29:24;;;;;;;2.17;1.50;;;;;;;29.66;21.66;93909.22;5076018;28;20055;-53
2021/10/12 10:31:56;;;;;;;3.33;1.40;;;;;;;29.69;21.61;93905.72;5076271;28;20037;-53
2021/10/12 10:34:37;;;;;;;1.67;1.40;;;;;;;30.03;21.10;93905.34;5075837;28;20060;-55
2021/10/12 10:37:16;;;;;;;1.90;1.45;;;;;;;29.86;21.43;93893.75;5065172;28;20048;-59
2021/10/12 10:39:48;;;;;;;1.80;1.50;;;;;;;30.31;20.99;93903.88;5055769;28;20055;-55
2021/10/12 10:42:40;;;;;;;2.65;1.60;;;;;;;30.10;21.10;93893.63;5055075;28;20059;-53
2021/10/12 10:45:08;;;;;;;;;;;;;;;30.13;21.22;93892.78;5056714;28;20044;-53
2021/10/12 10:47:41;;;;;;;1.90;1.52;;;;;;;29.62;21.70;93897.78;5056140;28;20327;-53
2021/10/12 10:50:11;;;;;;;2.10;1.83;;;;;;;29.98;21.52;93893.09;5060353;28;20444;-56
2021/10/12 10:52:46;;;;;;;2.38;1.92;;;;;;;30.39;20.74;93883.66;5055667;28;20060;-55
2021/10/12 10:55:21;;;;;;;2.72;2.40;;;;;;;29.68;21.79;93888.03;5056044;28;20360;-54
2021/10/12 10:58:18;;;;;;;3.28;2.40;;;;;;;29.81;21.48;93872.72;5054516;28;20036;-54
2021/10/12 11:00:46;;;;;;;2.65;2.10;;;;;;;29.84;21.36;93873.81;5040598;28;20083;-54
2021/10/12 11:03:29;;;;;;;2.58;1.85;;;;;;;29.94;21.41;93870.13;5054679;28;20053;-55
2021/10/12 11:05:58;;;;;;;3.13;1.73;;;;;;;29.42;21.76;93873.59;5055546;28;20049;-53
2021/10/12 11:08:32;;;;;;;2.38;1.75;;;;;;;29.96;21.43;93865.81;5053668;28;20057;-54
2021/10/12 11:11:03;;;;;;;2.70;1.75;;;;;;;29.95;21.29;93863.56;5055293;28;20352;-53
2021/10/12 11:13:41;;;;;;;2.23;1.80;;;;;;;30.25;20.90;93865.16;5055056;28;20059;-53
2021/10/12 11:16:16;;;;;;;2.03;1.73;;;;;;;29.36;22.14;93864.47;5055369;28;20291;-56
2021/10/12 11:18:45;;;;;;;2.00;1.55;;;;;;;29.63;21.87;93866.97;5058280;28;20581;-57
2021/10/12 11:21:17;;;;;;;3.75;2.30;;;;;;;29.72;21.70;93864.47;5055227;28;20388;-54
2021/10/12 11:23:54;;;;;;;3.58;2.47;;;;;;;29.76;21.50;93854.38;5054939;28;20506;-53
2021/10/12 11:26:24;;;;;;;4.82;3.50;;;;;;;29.50;21.91;93853.44;5054789;28;20053;-54
2021/10/12 11:28:53;;;;;;;14.25;12.75;;;;;;;30.07;21.37;93852.88;5055327;28;20056;-55
2021/10/12 11:31:25;;;;;;;7.80;6.55;;;;;;;30.14;21.30;93861.94;5054330;28;20049;-52
2021/10/12 11:33:55;;;;;;;8.10;5.75;;;;;;;29.81;21.67;93843.09;5054721;28;20355;-53
2021/10/12 11:36:29;;;;;;;7.93;5.50;;;;;;;29.76;21.60;93843.59;5054223;28;20055;-55
2021/10/12 11:39:06;;;;;;;4.53;3.25;;;;;;;30.05;21.17;93846.38;5054616;28;20051;-54
2021/10/12 11:41:38;;;;;;;3.85;2.80;;;;;;;29.49;22.16;93851.16;5054173;28;20044;-58
2021/10/12 11:44:16;;;;;;;3.63;2.47;;;;;;;29.55;21.87;93842.16;5054361;28;20045;-54